createdAt,value
2023-03-21T00:00:51.673Z,7.75
2023-03-21T00:01:50.747Z,7.75
2023-03-21T00:02:51.771Z,7.75
2023-03-21T00:03:50.812Z,7.74
2023-03-21T00:04:53.706Z,7.74
2023-03-21T00:05:51.579Z,7.74
2023-03-21T00:06:51.701Z,7.75
2023-03-21T00:07:51.434Z,7.75
2023-03-21T00:08:50.694Z,7.75
2023-03-21T00:09:51.500Z,7.74
2023-03-21T00:10:51.520Z,7.75
2023-03-21T00:11:51.429Z,7.75
2023-03-21T00:12:51.583Z,7.75
2023-03-21T00:13:50.613Z,7.75
2023-03-21T00:14:50.615Z,7.77
2023-03-21T00:16:04.968Z,7.75
2023-03-21T00:16:51.692Z,7.74
2023-03-21T00:17:50.831Z,7.72
2023-03-21T00:18:50.524Z,7.72
2023-03-21T00:19:51.637Z,7.72
2023-03-21T00:20:50.546Z,7.72
2023-03-21T00:22:05.923Z,7.72
2023-03-21T00:22:51.477Z,7.72
2023-03-21T00:23:51.247Z,7.72
2023-03-21T00:24:50.571Z,7.72
2023-03-21T00:25:50.439Z,7.74
2023-03-21T00:26:50.604Z,7.75
2023-03-21T00:28:05.509Z,7.75
2023-03-21T00:28:52.310Z,7.72
2023-03-21T00:29:50.631Z,7.75
2023-03-21T00:30:50.590Z,7.74
2023-03-21T00:31:50.359Z,7.75
2023-03-21T00:32:56.419Z,7.74
2023-03-21T00:33:52.080Z,7.74
2023-03-21T00:35:38.301Z,7.77
2023-03-21T00:36:01.795Z,7.75
2023-03-21T00:36:52.070Z,7.75
2023-03-21T00:37:50.220Z,7.75
2023-03-21T00:38:50.332Z,7.77
2023-03-21T00:39:50.233Z,7.77
2023-03-21T00:40:50.279Z,7.77
2023-03-21T00:41:50.288Z,7.78
2023-03-21T00:42:50.223Z,7.78
2023-03-21T00:43:50.181Z,7.78
2023-03-21T00:44:50.135Z,7.78
2023-03-21T00:45:50.140Z,7.79
2023-03-21T00:47:04.411Z,7.79
2023-03-21T00:47:52.107Z,7.78
2023-03-21T00:48:50.121Z,7.78
2023-03-21T00:49:50.134Z,7.79
2023-03-21T00:50:50.337Z,7.81
2023-03-21T00:51:50.332Z,7.81
2023-03-21T00:52:50.066Z,7.81
2023-03-21T00:53:50.043Z,7.79
2023-03-21T00:54:50.045Z,7.79
2023-03-21T00:55:50.059Z,7.81
2023-03-21T00:56:50.031Z,7.81
2023-03-21T00:57:56.224Z,7.81
2023-03-21T00:58:50.994Z,7.81
2023-03-21T00:59:49.984Z,7.82
2023-03-21T01:00:49.945Z,7.81
2023-03-21T01:01:50.062Z,7.81
2023-03-21T01:02:54.779Z,7.84
2023-03-21T01:03:51.057Z,7.82
2023-03-21T01:04:49.950Z,7.81
2023-03-21T01:05:49.865Z,7.84
2023-03-21T01:06:49.891Z,7.81
2023-03-21T01:07:49.838Z,7.84
2023-03-21T01:08:53.020Z,7.84
2023-03-21T01:09:50.227Z,7.82
2023-03-21T01:10:49.766Z,7.82
2023-03-21T01:11:50.267Z,7.82
2023-03-21T01:12:49.790Z,7.84
2023-03-21T01:14:20.727Z,7.84
2023-03-21T01:14:51.475Z,7.85
2023-03-21T01:15:50.630Z,7.85
2023-03-21T01:16:49.914Z,7.84
2023-03-21T01:17:49.668Z,7.85
2023-03-21T01:18:49.669Z,7.85
2023-03-21T01:19:52.279Z,7.87
2023-03-21T01:20:49.619Z,7.85
2023-03-21T01:21:49.641Z,7.85
2023-03-21T01:22:49.576Z,7.87
2023-03-21T01:23:49.634Z,7.87
2023-03-21T01:24:55.411Z,7.85
2023-03-21T01:25:50.552Z,7.85
2023-03-21T01:26:49.533Z,7.87
2023-03-21T01:27:50.490Z,7.85
2023-03-21T01:28:49.538Z,7.87
2023-03-21T01:29:49.568Z,7.87
2023-03-21T01:30:50.444Z,7.85
2023-03-21T01:31:49.528Z,7.85
2023-03-21T01:32:49.482Z,7.89
2023-03-21T01:33:49.487Z,7.89
2023-03-21T01:34:49.829Z,7.89
2023-03-21T01:35:55.359Z,7.87
2023-03-21T01:36:50.592Z,7.89
2023-03-21T01:37:49.398Z,7.87
2023-03-21T01:38:49.381Z,7.89
2023-03-21T01:39:49.392Z,7.89
2023-03-21T01:40:50.252Z,7.89
2023-03-21T01:41:49.494Z,7.89
2023-03-21T01:42:49.729Z,7.89
2023-03-21T01:43:49.426Z,7.89
2023-03-21T01:44:49.365Z,7.89
2023-03-21T01:45:49.389Z,7.90
2023-03-21T01:47:00.119Z,7.92
2023-03-21T01:47:50.327Z,7.90
2023-03-21T01:48:49.248Z,7.92
2023-03-21T01:49:49.257Z,7.89
2023-03-21T01:50:49.243Z,7.90
2023-03-21T01:51:49.254Z,7.90
2023-03-21T01:52:50.347Z,7.90
2023-03-21T01:53:49.252Z,7.89
2023-03-21T01:54:49.185Z,7.90
2023-03-21T01:55:49.193Z,7.90
2023-03-21T01:56:49.164Z,7.92
2023-03-21T01:58:03.992Z,7.90
2023-03-21T01:58:50.210Z,7.90
2023-03-21T01:59:49.148Z,7.90
2023-03-21T02:00:49.128Z,7.90
2023-03-21T02:01:49.095Z,7.90
2023-03-21T02:02:49.074Z,7.90
2023-03-21T02:03:49.125Z,7.90
2023-03-21T02:04:50.356Z,7.90
2023-03-21T02:05:49.006Z,7.92
2023-03-21T02:06:49.035Z,7.92
2023-03-21T02:07:49.060Z,7.92
2023-03-21T02:08:49.013Z,7.90
2023-03-21T02:09:49.027Z,7.92
2023-03-21T02:10:50.527Z,7.92
2023-03-21T02:11:48.957Z,7.92
2023-03-21T02:12:49.005Z,7.92
2023-03-21T02:13:53.621Z,7.93
2023-03-21T02:14:49.915Z,7.92
2023-03-21T02:15:48.918Z,7.92
2023-03-21T02:16:48.898Z,7.92
2023-03-21T02:17:48.852Z,7.92
2023-03-21T02:18:48.928Z,7.92
2023-03-21T02:19:53.413Z,7.93
2023-03-21T02:20:49.837Z,7.92
2023-03-21T02:21:48.816Z,7.92
2023-03-21T02:22:48.868Z,7.90
2023-03-21T02:23:48.822Z,7.92
2023-03-21T02:24:54.554Z,7.92
2023-03-21T02:25:50.291Z,7.92
2023-03-21T02:27:01.420Z,7.92
2023-03-21T02:27:49.962Z,7.92
2023-03-21T02:28:48.768Z,7.92
2023-03-21T02:29:48.753Z,7.92
2023-03-21T02:30:51.931Z,7.93
2023-03-21T02:31:48.763Z,7.93
2023-03-21T02:32:49.616Z,7.92
2023-03-21T02:33:48.622Z,7.93
2023-03-21T02:34:48.586Z,7.93
2023-03-21T02:35:54.151Z,7.93
2023-03-21T02:36:50.532Z,7.93
2023-03-21T02:37:58.295Z,7.92
2023-03-21T02:38:49.560Z,7.93
2023-03-21T02:39:48.742Z,7.92
2023-03-21T02:40:48.696Z,7.93
2023-03-21T02:41:48.656Z,7.92
2023-03-21T02:42:54.797Z,7.93
2023-03-21T02:43:50.358Z,7.92
2023-03-21T02:44:49.243Z,7.90
2023-03-21T02:45:48.511Z,7.90
2023-03-21T02:46:59.696Z,7.90
2023-03-21T02:47:50.267Z,7.90
2023-03-21T02:48:51.109Z,7.92
2023-03-21T02:49:49.269Z,7.92
2023-03-21T02:50:49.171Z,7.93
2023-03-21T02:51:48.371Z,7.92
2023-03-21T02:52:48.344Z,7.92
2023-03-21T02:53:53.311Z,7.94
2023-03-21T02:54:49.375Z,7.93
2023-03-21T02:55:49.202Z,7.94
2023-03-21T02:56:48.319Z,7.94
2023-03-21T02:57:48.281Z,7.93
2023-03-21T02:58:49.172Z,7.94
2023-03-21T02:59:55.472Z,7.93
2023-03-21T03:00:49.251Z,7.94
2023-03-21T03:01:48.302Z,7.94
2023-03-21T03:02:52.576Z,7.94
2023-03-21T03:03:49.972Z,7.94
2023-03-21T03:04:48.176Z,7.94
2023-03-21T03:05:48.719Z,7.96
2023-03-21T03:06:48.126Z,7.96
2023-03-21T03:07:49.082Z,7.94
2023-03-21T03:09:01.266Z,7.96
2023-03-21T03:09:49.112Z,7.96
2023-03-21T03:10:48.654Z,7.97
2023-03-21T03:11:48.706Z,7.96
2023-03-21T03:12:48.856Z,7.96
2023-03-21T03:13:49.022Z,7.96
2023-03-21T03:15:02.361Z,7.97
2023-03-21T03:15:49.908Z,7.97
2023-03-21T03:16:48.027Z,7.97
2023-03-21T03:17:48.005Z,7.99
2023-03-21T03:18:48.035Z,7.97
2023-03-21T03:19:50.674Z,7.99
2023-03-21T03:20:48.858Z,7.99
2023-03-21T03:21:47.950Z,8.00
2023-03-21T03:22:47.928Z,8.00
2023-03-21T03:23:47.937Z,7.99
2023-03-21T03:24:48.718Z,7.99
2023-03-21T03:25:48.906Z,7.99
2023-03-21T03:26:48.740Z,8.00
2023-03-21T03:27:48.700Z,7.99
2023-03-21T03:28:48.862Z,8.00
2023-03-21T03:29:48.740Z,8.00
2023-03-21T03:31:01.180Z,8.02
2023-03-21T03:31:49.159Z,8.02
2023-03-21T03:32:48.763Z,8.00
2023-03-21T03:33:48.666Z,8.00
2023-03-21T03:34:48.567Z,8.00
2023-03-21T03:35:55.767Z,8.00
2023-03-21T03:36:48.841Z,8.00
2023-03-21T03:37:48.538Z,8.02
2023-03-21T03:38:48.698Z,8.02
2023-03-21T03:39:47.698Z,7.99
2023-03-21T03:40:48.508Z,7.99
2023-03-21T03:42:48.659Z,7.99
2023-03-21T03:43:47.668Z,8.00
2023-03-21T03:44:47.670Z,7.97
2023-03-21T03:45:47.621Z,7.97
2023-03-21T03:46:47.825Z,7.99
2023-03-21T03:47:56.452Z,8.00
2023-03-21T03:48:48.562Z,7.99
2023-03-21T03:49:47.563Z,7.99
2023-03-21T03:50:47.560Z,7.99
2023-03-21T03:51:48.022Z,7.99
2023-03-21T03:52:56.126Z,7.99
2023-03-21T03:53:48.541Z,7.99
2023-03-21T03:54:47.526Z,8.00
2023-03-21T03:55:47.572Z,7.99
2023-03-21T03:56:47.545Z,8.00
2023-03-21T03:57:47.508Z,8.00
2023-03-21T03:58:47.474Z,8.02
2023-03-21T03:59:47.554Z,8.02
2023-03-21T04:00:47.391Z,7.99
2023-03-21T04:01:47.443Z,8.00
2023-03-21T04:02:47.440Z,8.02
2023-03-21T04:03:50.484Z,8.00
2023-03-21T04:04:48.385Z,8.02
2023-03-21T04:05:47.376Z,8.02
2023-03-21T04:06:47.336Z,8.02
2023-03-21T04:07:47.296Z,8.02
2023-03-21T04:08:47.316Z,8.02
2023-03-21T04:09:47.276Z,8.02
2023-03-21T04:10:47.290Z,8.03
2023-03-21T04:11:47.269Z,8.03
2023-03-21T04:12:47.312Z,8.02
2023-03-21T04:13:47.281Z,8.04
2023-03-21T04:14:47.618Z,8.07
2023-03-21T04:15:47.284Z,8.04
2023-03-21T04:16:47.185Z,8.04
2023-03-21T04:17:47.191Z,8.04
2023-03-21T04:18:47.151Z,8.04
2023-03-21T04:19:47.150Z,8.04
2023-03-21T04:20:47.403Z,8.07
2023-03-21T04:21:47.145Z,8.07
2023-03-21T04:22:47.112Z,8.04
2023-03-21T04:23:47.122Z,8.07
2023-03-21T04:24:47.090Z,8.04
2023-03-21T04:25:55.864Z,8.04
2023-03-21T04:26:48.722Z,8.07
2023-03-21T04:27:47.052Z,8.07
2023-03-21T04:28:47.047Z,8.04
2023-03-21T04:29:47.048Z,8.03
2023-03-21T04:31:00.330Z,8.07
2023-03-21T04:31:48.053Z,8.04
2023-03-21T04:32:47.077Z,8.04
2023-03-21T04:33:46.946Z,8.04
2023-03-21T04:34:47.009Z,8.07
2023-03-21T04:35:46.929Z,8.07
2023-03-21T04:36:46.944Z,8.04
2023-03-21T04:37:46.929Z,8.07
2023-03-21T04:38:46.893Z,8.07
2023-03-21T04:39:46.879Z,8.04
2023-03-21T04:40:47.347Z,8.07
2023-03-21T04:41:46.898Z,8.03
2023-03-21T04:42:46.903Z,8.07
2023-03-21T04:43:46.904Z,8.08
2023-03-21T04:44:46.807Z,8.07
2023-03-21T04:45:47.641Z,8.08
2023-03-21T04:46:46.792Z,8.07
2023-03-21T04:47:47.690Z,8.07
2023-03-21T04:48:47.576Z,8.07
2023-03-21T04:49:46.744Z,8.07
2023-03-21T04:50:46.707Z,8.07
2023-03-21T04:51:46.706Z,8.07
2023-03-21T04:52:46.686Z,8.04
2023-03-21T04:53:47.606Z,8.08
2023-03-21T04:54:46.686Z,8.07
2023-03-21T04:55:46.726Z,8.10
2023-03-21T04:56:47.576Z,8.08
2023-03-21T04:57:46.628Z,8.08
2023-03-21T04:58:46.649Z,8.10
2023-03-21T04:59:47.533Z,8.11
2023-03-21T05:00:46.621Z,8.11
2023-03-21T05:01:48.515Z,8.10
2023-03-21T05:02:47.514Z,8.11
2023-03-21T05:03:46.598Z,8.11
2023-03-21T05:04:46.505Z,8.11
2023-03-21T05:05:47.448Z,8.11
2023-03-21T05:06:46.495Z,8.12
2023-03-21T05:07:46.480Z,8.11
2023-03-21T05:08:47.346Z,8.12
2023-03-21T05:09:47.309Z,8.11
2023-03-21T05:10:46.441Z,8.12
2023-03-21T05:11:46.416Z,8.12
2023-03-21T05:12:47.315Z,8.12
2023-03-21T05:13:47.247Z,8.14
2023-03-21T05:14:47.399Z,8.14
2023-03-21T05:15:46.379Z,8.12
2023-03-21T05:16:46.464Z,8.15
2023-03-21T05:17:47.344Z,8.14
2023-03-21T05:18:46.313Z,8.14
2023-03-21T05:19:46.318Z,8.15
2023-03-21T05:20:46.309Z,8.15
2023-03-21T05:21:46.297Z,8.15
2023-03-21T05:22:46.272Z,8.15
2023-03-21T05:23:46.266Z,8.15
2023-03-21T05:24:46.251Z,8.15
2023-03-21T05:25:46.267Z,8.15
2023-03-21T05:26:46.996Z,8.17
2023-03-21T05:27:47.151Z,8.17
2023-03-21T05:28:47.091Z,8.18
2023-03-21T05:29:46.989Z,8.17
2023-03-21T05:30:46.223Z,8.20
2023-03-21T05:31:47.077Z,8.20
2023-03-21T05:32:46.128Z,8.20
2023-03-21T05:33:46.120Z,8.20
2023-03-21T05:34:46.134Z,8.20
2023-03-21T05:35:46.163Z,8.18
2023-03-21T05:36:46.061Z,8.18
2023-03-21T05:37:46.073Z,8.21
2023-03-21T05:38:46.121Z,8.21
2023-03-21T05:39:46.042Z,8.21
2023-03-21T05:40:46.966Z,8.21
2023-03-21T05:41:46.876Z,8.22
2023-03-21T05:42:47.033Z,8.25
2023-03-21T05:43:45.993Z,8.22
2023-03-21T05:44:45.967Z,8.21
2023-03-21T05:45:45.964Z,8.18
2023-03-21T05:46:45.969Z,8.18
2023-03-21T05:47:46.103Z,8.20
2023-03-21T05:48:46.148Z,8.20
2023-03-21T05:49:46.211Z,8.22
2023-03-21T05:50:45.878Z,8.22
2023-03-21T05:51:46.246Z,8.25
2023-03-21T05:52:45.882Z,8.26
2023-03-21T05:53:45.896Z,8.25
2023-03-21T05:54:45.846Z,8.25
2023-03-21T05:55:45.847Z,8.28
2023-03-21T05:56:45.820Z,8.26
2023-03-21T05:57:45.815Z,8.30
2023-03-21T05:58:45.846Z,8.30
2023-03-21T05:59:45.799Z,8.33
2023-03-21T06:00:46.036Z,8.35
2023-03-21T06:01:46.029Z,8.36
2023-03-21T06:02:45.800Z,8.36
2023-03-21T06:03:45.807Z,8.37
2023-03-21T06:04:45.700Z,8.36
2023-03-21T06:05:46.585Z,8.36
2023-03-21T06:06:45.690Z,8.36
2023-03-21T06:07:45.737Z,8.36
2023-03-21T06:08:45.625Z,8.40
2023-03-21T06:09:45.659Z,8.40
2023-03-21T06:10:46.612Z,8.42
2023-03-21T06:11:45.621Z,8.47
2023-03-21T06:12:45.610Z,8.51
2023-03-21T06:13:45.640Z,8.54
2023-03-21T06:14:45.553Z,8.58
2023-03-21T06:15:45.598Z,8.63
2023-03-21T06:16:45.542Z,8.65
2023-03-21T06:17:46.460Z,8.66
2023-03-21T06:18:46.386Z,8.65
2023-03-21T06:19:45.505Z,8.65
2023-03-21T06:20:45.512Z,8.63
2023-03-21T06:21:45.501Z,8.65
2023-03-21T06:22:45.484Z,8.68
2023-03-21T06:23:45.484Z,8.66
2023-03-21T06:24:46.295Z,8.71
2023-03-21T06:25:46.199Z,8.73
2023-03-21T06:26:45.420Z,8.75
2023-03-21T06:27:46.263Z,8.73
2023-03-21T06:28:46.165Z,8.73
2023-03-21T06:29:45.362Z,8.73
2023-03-21T06:30:45.391Z,8.75
2023-03-21T06:31:46.233Z,8.78
2023-03-21T06:32:46.297Z,8.79
2023-03-21T06:33:45.348Z,8.79
2023-03-21T06:34:46.109Z,8.81
2023-03-21T06:35:46.281Z,8.86
2023-03-21T06:36:46.249Z,8.88
2023-03-21T06:37:46.124Z,8.90
2023-03-21T06:38:46.229Z,8.93
2023-03-21T06:39:46.147Z,9.01
2023-03-21T06:40:46.035Z,9.06
2023-03-21T06:41:46.205Z,9.10
2023-03-21T06:42:45.563Z,9.10
2023-03-21T06:43:45.647Z,9.13
2023-03-21T06:44:45.649Z,9.15
2023-03-21T06:45:46.069Z,9.21
2023-03-21T06:46:45.207Z,9.23
2023-03-21T06:47:45.955Z,9.21
2023-03-21T06:48:46.033Z,9.21
2023-03-21T06:49:45.083Z,9.18
2023-03-21T06:50:45.841Z,9.18
2023-03-21T06:51:45.101Z,9.20
2023-03-21T06:52:45.049Z,9.16
2023-03-21T06:53:45.813Z,9.15
2023-03-21T06:54:45.108Z,9.13
2023-03-21T06:55:45.877Z,9.12
2023-03-21T06:56:45.015Z,9.06
2023-03-21T06:57:45.947Z,9.06
2023-03-21T06:58:44.976Z,8.99
2023-03-21T06:59:44.945Z,8.99
2023-03-21T07:00:45.949Z,8.96
2023-03-21T07:01:45.820Z,8.96
2023-03-21T07:02:45.743Z,8.96
2023-03-21T07:03:45.880Z,8.96
2023-03-21T07:04:45.648Z,8.91
2023-03-21T07:05:45.663Z,8.91
2023-03-21T07:06:45.667Z,8.93
2023-03-21T07:07:45.772Z,8.93
2023-03-21T07:08:45.660Z,8.96
2023-03-21T07:09:45.614Z,8.97
2023-03-21T07:10:45.531Z,8.99
2023-03-21T07:11:45.628Z,9.04
2023-03-21T07:12:45.591Z,9.10
2023-03-21T07:13:45.640Z,9.20
2023-03-21T07:14:45.635Z,9.28
2023-03-21T07:15:44.722Z,9.34
2023-03-21T07:16:44.786Z,9.43
2023-03-21T07:17:44.732Z,9.52
2023-03-21T07:18:45.093Z,9.60
2023-03-21T07:19:45.009Z,9.64
2023-03-21T07:20:44.900Z,9.64
2023-03-21T07:21:44.954Z,9.63
2023-03-21T07:22:45.012Z,9.60
2023-03-21T07:23:45.054Z,9.57
2023-03-21T07:24:48.903Z,9.57
2023-03-21T07:25:45.599Z,9.58
2023-03-21T07:26:45.198Z,9.58
2023-03-21T07:27:44.704Z,9.61
2023-03-21T07:28:45.292Z,9.66
2023-03-21T07:29:44.510Z,9.68
2023-03-21T07:30:44.517Z,9.70
2023-03-21T07:31:45.497Z,9.76
2023-03-21T07:32:44.473Z,9.82
2023-03-21T07:33:44.496Z,9.89
2023-03-21T07:34:44.455Z,9.93
2023-03-21T07:35:44.474Z,9.93
2023-03-21T07:36:45.266Z,9.91
2023-03-21T07:37:44.416Z,9.88
2023-03-21T07:38:44.414Z,9.86
2023-03-21T07:39:44.373Z,9.81
2023-03-21T07:40:44.354Z,9.82
2023-03-21T07:41:44.347Z,9.83
2023-03-21T07:42:44.388Z,9.85
2023-03-21T07:43:44.396Z,9.88
2023-03-21T07:44:44.365Z,9.89
2023-03-21T07:45:44.338Z,9.91
2023-03-21T07:46:44.325Z,9.88
2023-03-21T07:47:44.255Z,9.89
2023-03-21T07:48:44.278Z,9.85
2023-03-21T07:49:44.217Z,9.83
2023-03-21T07:50:44.227Z,9.85
2023-03-21T07:51:44.230Z,9.85
2023-03-21T07:52:45.006Z,9.83
2023-03-21T07:53:44.176Z,9.81
2023-03-21T07:54:44.184Z,9.76
2023-03-21T07:55:44.121Z,9.79
2023-03-21T07:56:44.137Z,9.82
2023-03-21T07:57:44.126Z,9.85
2023-03-21T07:58:44.112Z,9.89
2023-03-21T07:59:44.101Z,9.89
2023-03-21T08:00:44.077Z,9.96
2023-03-21T08:01:44.098Z,9.97
2023-03-21T08:02:44.079Z,10.00
2023-03-21T08:03:44.061Z,9.99
2023-03-21T08:04:44.031Z,9.96
2023-03-21T08:05:43.988Z,9.93
2023-03-21T08:06:43.978Z,9.91
2023-03-21T08:07:43.979Z,9.93
2023-03-21T08:08:43.979Z,9.89
2023-03-21T08:09:43.936Z,9.89
2023-03-21T08:10:48.919Z,9.89
2023-03-21T08:11:43.946Z,9.89
2023-03-21T08:12:43.889Z,9.89
2023-03-21T08:13:43.878Z,9.89
2023-03-21T08:14:44.389Z,9.88
2023-03-21T08:15:44.377Z,9.86
2023-03-21T08:16:43.854Z,9.88
2023-03-21T08:17:43.810Z,9.86
2023-03-21T08:18:43.815Z,9.86
2023-03-21T08:19:43.797Z,9.85
2023-03-21T08:20:43.819Z,9.85
2023-03-21T08:21:43.760Z,9.88
2023-03-21T08:22:44.699Z,9.89
2023-03-21T08:23:43.746Z,9.93
2023-03-21T08:24:43.744Z,9.94
2023-03-21T08:25:43.716Z,9.99
2023-03-21T08:26:43.700Z,10.01
2023-03-21T08:27:43.698Z,10.03
2023-03-21T08:28:44.625Z,10.10
2023-03-21T08:29:43.797Z,10.17
2023-03-21T08:30:43.689Z,10.19
2023-03-21T08:31:43.649Z,10.24
2023-03-21T08:32:43.621Z,10.30
2023-03-21T08:33:44.405Z,10.34
2023-03-21T08:34:44.564Z,10.39
2023-03-21T08:35:43.872Z,10.43
2023-03-21T08:36:43.558Z,10.44
2023-03-21T08:37:44.384Z,10.44
2023-03-21T08:38:44.438Z,10.47
2023-03-21T08:39:44.425Z,10.51
2023-03-21T08:40:44.385Z,10.52
2023-03-21T08:41:44.401Z,10.55
2023-03-21T08:42:43.478Z,10.60
2023-03-21T08:43:44.389Z,10.62
2023-03-21T08:44:44.380Z,10.59
2023-03-21T08:45:43.448Z,10.55
2023-03-21T08:46:43.446Z,10.51
2023-03-21T08:47:43.464Z,10.52
2023-03-21T08:48:43.395Z,10.51
2023-03-21T08:49:44.148Z,10.51
2023-03-21T08:50:43.402Z,10.46
2023-03-21T08:51:43.366Z,10.46
2023-03-21T08:52:44.123Z,10.46
2023-03-21T08:53:43.341Z,10.47
2023-03-21T08:54:43.301Z,10.47
2023-03-21T08:55:43.307Z,10.47
2023-03-21T08:56:43.294Z,10.47
2023-03-21T08:57:44.154Z,10.47
2023-03-21T08:58:43.274Z,10.52
2023-03-21T08:59:43.265Z,10.47
2023-03-21T09:00:43.229Z,10.53
2023-03-21T09:01:44.051Z,10.47
2023-03-21T09:02:44.179Z,10.51
2023-03-21T09:03:44.085Z,10.51
2023-03-21T09:04:44.039Z,10.51
2023-03-21T09:05:44.149Z,10.51
2023-03-21T09:06:44.087Z,10.47
2023-03-21T09:07:43.138Z,10.47
2023-03-21T09:08:43.135Z,10.51
2023-03-21T09:09:43.704Z,10.51
2023-03-21T09:10:43.113Z,10.46
2023-03-21T09:11:44.130Z,10.44
2023-03-21T09:12:43.058Z,10.47
2023-03-21T09:13:43.926Z,10.46
2023-03-21T09:14:43.367Z,10.46
2023-03-21T09:15:43.109Z,10.46
2023-03-21T09:16:43.044Z,10.46
2023-03-21T09:17:42.988Z,10.46
2023-03-21T09:18:43.055Z,10.46
2023-03-21T09:19:43.112Z,10.46
2023-03-21T09:20:43.217Z,10.46
2023-03-21T09:21:42.961Z,10.46
2023-03-21T09:22:43.049Z,10.46
2023-03-21T09:23:43.311Z,10.44
2023-03-21T09:24:42.880Z,10.44
2023-03-21T09:25:42.874Z,10.42
2023-03-21T09:26:43.464Z,10.40
2023-03-21T09:27:43.516Z,10.43
2023-03-21T09:28:42.882Z,10.46
2023-03-21T09:29:42.820Z,10.46
2023-03-21T09:30:43.679Z,10.51
2023-03-21T09:31:42.912Z,10.53
2023-03-21T09:32:42.795Z,10.59
2023-03-21T09:33:42.758Z,10.62
2023-03-21T09:34:42.743Z,10.63
2023-03-21T09:35:42.774Z,10.66
2023-03-21T09:36:42.726Z,10.66
2023-03-21T09:37:42.724Z,10.70
2023-03-21T09:38:42.921Z,10.73
2023-03-21T09:39:42.689Z,10.73
2023-03-21T09:40:42.663Z,10.76
2023-03-21T09:41:42.654Z,10.81
2023-03-21T09:42:42.634Z,10.84
2023-03-21T09:43:42.623Z,10.88
2023-03-21T09:44:42.624Z,10.92
2023-03-21T09:45:42.641Z,10.92
2023-03-21T09:46:42.711Z,10.98
2023-03-21T09:47:42.651Z,11.01
2023-03-21T09:48:54.339Z,11.03
2023-03-21T09:49:43.582Z,11.06
2023-03-21T09:50:43.426Z,11.10
2023-03-21T09:51:42.575Z,11.10
2023-03-21T09:52:43.478Z,11.11
2023-03-21T09:53:42.508Z,11.09
2023-03-21T09:54:43.279Z,11.06
2023-03-21T09:55:43.438Z,11.03
2023-03-21T09:56:43.177Z,11.01
2023-03-21T09:57:43.284Z,10.99
2023-03-21T09:58:43.407Z,11.02
2023-03-21T09:59:42.432Z,11.03
2023-03-21T10:00:43.230Z,11.02
2023-03-21T10:01:43.378Z,10.98
2023-03-21T10:02:43.301Z,10.96
2023-03-21T10:03:42.363Z,10.96
2023-03-21T10:04:42.377Z,10.96
2023-03-21T10:05:42.326Z,11.01
2023-03-21T10:06:43.149Z,11.01
2023-03-21T10:07:43.058Z,11.03
2023-03-21T10:08:42.320Z,11.10
2023-03-21T10:09:42.335Z,11.19
2023-03-21T10:10:43.029Z,11.28
2023-03-21T10:11:43.198Z,11.32
2023-03-21T10:12:43.089Z,11.38
2023-03-21T10:13:42.990Z,11.41
2023-03-21T10:14:42.275Z,11.46
2023-03-21T10:15:43.059Z,11.44
2023-03-21T10:16:42.979Z,11.43
2023-03-21T10:17:43.380Z,11.38
2023-03-21T10:18:42.175Z,11.41
2023-03-21T10:19:42.929Z,11.38
2023-03-21T10:20:43.094Z,11.35
2023-03-21T10:22:01.329Z,11.34
2023-03-21T10:22:43.184Z,11.32
2023-03-21T10:23:43.056Z,11.29
2023-03-21T10:24:42.962Z,11.29
2023-03-21T10:25:42.862Z,11.31
2023-03-21T10:26:43.022Z,11.32
2023-03-21T10:27:42.935Z,11.34
2023-03-21T10:28:52.731Z,11.35
2023-03-21T10:29:43.040Z,11.32
2023-03-21T10:30:42.010Z,11.29
2023-03-21T10:31:42.007Z,11.31
2023-03-21T10:32:42.622Z,11.27
2023-03-21T10:33:42.704Z,11.20
2023-03-21T10:34:41.941Z,11.19
2023-03-21T10:35:42.170Z,11.19
2023-03-21T10:36:41.977Z,11.20
2023-03-21T10:37:42.626Z,11.14
2023-03-21T10:38:42.629Z,11.16
2023-03-21T10:39:42.635Z,11.17
2023-03-21T10:40:42.627Z,11.17
2023-03-21T10:41:42.189Z,11.16
2023-03-21T10:42:42.628Z,11.14
2023-03-21T10:43:42.630Z,11.17
2023-03-21T10:44:41.813Z,11.21
2023-03-21T10:45:42.634Z,11.25
2023-03-21T10:46:42.311Z,11.27
2023-03-21T10:47:42.858Z,11.28
2023-03-21T10:48:42.811Z,11.29
2023-03-21T10:50:05.933Z,11.34
2023-03-21T10:50:42.746Z,11.32
2023-03-21T10:51:41.677Z,11.29
2023-03-21T10:52:41.712Z,11.28
2023-03-21T10:53:41.717Z,11.29
2023-03-21T10:54:41.732Z,11.27
2023-03-21T10:55:41.771Z,11.28
2023-03-21T10:56:41.819Z,11.29
2023-03-21T10:57:41.594Z,11.28
2023-03-21T10:58:41.981Z,11.25
2023-03-21T10:59:42.015Z,11.25
2023-03-21T11:00:41.607Z,11.21
2023-03-21T11:01:41.650Z,11.21
2023-03-21T11:02:41.618Z,11.19
2023-03-21T11:03:41.641Z,11.19
2023-03-21T11:04:41.584Z,11.19
2023-03-21T11:05:42.052Z,11.19
2023-03-21T11:06:41.454Z,11.14
2023-03-21T11:07:41.447Z,11.13
2023-03-21T11:08:41.491Z,11.10
2023-03-21T11:09:41.451Z,11.07
2023-03-21T11:10:41.439Z,11.03
2023-03-21T11:11:41.440Z,11.03
2023-03-21T11:12:41.390Z,11.03
2023-03-21T11:13:41.360Z,11.06
2023-03-21T11:14:41.355Z,11.03
2023-03-21T11:15:41.583Z,11.06
2023-03-21T11:16:42.340Z,11.01
2023-03-21T11:17:41.313Z,11.02
2023-03-21T11:18:41.302Z,11.02
2023-03-21T11:19:41.277Z,11.01
2023-03-21T11:20:41.313Z,10.99
2023-03-21T11:21:41.286Z,11.01
2023-03-21T11:22:41.288Z,11.03
2023-03-21T11:23:41.234Z,11.02
2023-03-21T11:24:41.215Z,11.01
2023-03-21T11:25:41.570Z,11.02
2023-03-21T11:26:41.273Z,11.03
2023-03-21T11:27:41.211Z,11.09
2023-03-21T11:28:41.139Z,11.07
2023-03-21T11:29:41.150Z,11.10
2023-03-21T11:30:41.207Z,11.07
2023-03-21T11:31:41.199Z,11.11
2023-03-21T11:32:41.119Z,11.16
2023-03-21T11:33:41.114Z,11.16
2023-03-21T11:34:41.072Z,11.20
2023-03-21T11:35:41.473Z,11.25
2023-03-21T11:36:41.096Z,11.32
2023-03-21T11:37:41.081Z,11.35
2023-03-21T11:38:41.026Z,11.43
2023-03-21T11:39:41.921Z,11.44
2023-03-21T11:40:41.012Z,11.49
2023-03-21T11:41:41.077Z,11.47
2023-03-21T11:42:40.974Z,11.47
2023-03-21T11:43:41.005Z,11.47
2023-03-21T11:44:41.945Z,11.50
2023-03-21T11:45:41.347Z,11.49
2023-03-21T11:46:40.906Z,11.52
2023-03-21T11:47:40.982Z,11.53
2023-03-21T11:48:40.913Z,11.57
2023-03-21T11:49:40.893Z,11.59
2023-03-21T11:50:41.048Z,11.61
2023-03-21T11:51:40.868Z,11.59
2023-03-21T11:52:40.835Z,11.59
2023-03-21T11:53:40.851Z,11.62
2023-03-21T11:54:40.831Z,11.62
2023-03-21T11:55:40.820Z,11.64
2023-03-21T11:56:40.773Z,11.65
2023-03-21T11:57:40.863Z,11.68
2023-03-21T11:58:40.960Z,11.68
2023-03-21T11:59:40.908Z,11.67
2023-03-21T12:00:40.790Z,11.64
2023-03-21T12:01:40.977Z,11.54
2023-03-21T12:02:40.800Z,11.47
2023-03-21T12:03:47.713Z,11.43
2023-03-21T12:04:42.746Z,11.41
2023-03-21T12:05:40.974Z,11.38
2023-03-21T12:06:40.659Z,11.35
2023-03-21T12:07:40.627Z,11.32
2023-03-21T12:08:40.638Z,11.29
2023-03-21T12:09:41.097Z,11.24
2023-03-21T12:10:40.598Z,11.21
2023-03-21T12:11:40.590Z,11.21
2023-03-21T12:12:40.544Z,11.20
2023-03-21T12:13:40.530Z,11.20
2023-03-21T12:14:40.561Z,11.24
2023-03-21T12:15:41.655Z,11.24
2023-03-21T12:16:40.562Z,11.25
2023-03-21T12:17:41.386Z,11.24
2023-03-21T12:18:41.239Z,11.19
2023-03-21T12:19:40.480Z,11.17
2023-03-21T12:20:40.518Z,11.19
2023-03-21T12:21:41.245Z,11.24
2023-03-21T12:22:40.427Z,11.28
2023-03-21T12:23:40.503Z,11.35
2023-03-21T12:24:40.419Z,11.43
2023-03-21T12:25:40.426Z,11.50
2023-03-21T12:26:41.265Z,11.61
2023-03-21T12:27:40.758Z,11.70
2023-03-21T12:28:40.472Z,11.75
2023-03-21T12:29:41.204Z,11.78
2023-03-21T12:30:41.103Z,11.82
2023-03-21T12:31:41.344Z,11.89
2023-03-21T12:32:41.182Z,11.96
2023-03-21T12:33:40.268Z,12.01
2023-03-21T12:34:40.277Z,12.04
2023-03-21T12:35:40.591Z,12.06
2023-03-21T12:36:40.235Z,12.01
2023-03-21T12:37:45.570Z,11.93
2023-03-21T12:38:40.590Z,11.93
2023-03-21T12:39:40.236Z,11.93
2023-03-21T12:40:40.168Z,11.93
2023-03-21T12:41:40.170Z,11.90
2023-03-21T12:42:40.186Z,11.87
2023-03-21T12:43:40.189Z,11.78
2023-03-21T12:44:40.098Z,11.68
2023-03-21T12:45:47.404Z,11.65
2023-03-21T12:46:41.210Z,11.61
2023-03-21T12:47:40.134Z,11.57
2023-03-21T12:48:40.077Z,11.53
2023-03-21T12:49:40.048Z,11.52
2023-03-21T12:50:40.033Z,11.52
2023-03-21T12:51:40.017Z,11.50
2023-03-21T12:52:40.029Z,11.50
2023-03-21T12:53:39.989Z,11.49
2023-03-21T12:54:39.961Z,11.44
2023-03-21T12:55:40.279Z,11.39
2023-03-21T12:56:39.936Z,11.41
2023-03-21T12:57:44.634Z,11.39
2023-03-21T12:58:42.962Z,11.38
2023-03-21T12:59:39.893Z,11.38
2023-03-21T13:00:41.123Z,11.38
2023-03-21T13:01:40.687Z,11.38
2023-03-21T13:02:39.839Z,11.44
2023-03-21T13:03:40.844Z,11.43
2023-03-21T13:04:39.857Z,11.41
2023-03-21T13:05:39.858Z,11.38
2023-03-21T13:06:39.816Z,11.36
2023-03-21T13:07:40.620Z,11.35
2023-03-21T13:08:40.531Z,11.32
2023-03-21T13:09:39.770Z,11.27